ids not valid AWC - Terminal Aerodrome Forecasts (TAFs)
TAF Text Data
IDs:
Format:
Raw Decoded Include METAR

Data at: 0314 UTC 15 Aug 2020

Region: TOP
KATL 150157Z 1502/1606 19005KT P6SM VCSH SCT040 BKN100
  FM150600 21004KT P6SM VCSH SCT007 BKN012
  FM150900 21004KT 5SM BR VCSH BKN004
  FM151500 25005KT P6SM VCSH BKN025
  FM151800 26006KT P6SM VCSH BKN035
  PROB30 1518/1524 VRB15G25KT 4SM TSRA BR BKN025CB
  FM160100 30007KT P6SM SCT040 BKN080


KBOS 142320Z 1500/1606 07009KT P6SM FEW040 BKN250
  FM151100 03011G24KT P6SM OVC020
  FM151200 03011G28KT P6SM OVC015
  FM152200 05011G21KT P6SM OVC020
  FM160300 04007KT P6SM BKN025


KBWI 142333Z 1500/1606 09007KT P6SM -SHRA BKN050
  FM150200 07004KT P6SM BKN050
  FM150800 06003KT 6SM BR BKN035
  FM151300 06004KT P6SM BKN090
  FM152200 09005KT P6SM VCSH OVC050
  FM160500 07008KT P6SM -SHRA OVC040


KCLE 150305Z 1503/1606 01007KT P6SM BKN250
  FM151500 14006KT P6SM SCT050 BKN110
  FM152300 16008KT P6SM SCT050


KCLT 150307Z 1503/1606 15006KT P6SM -SHRA SCT035 BKN060
  TEMPO 1503/1506 3SM TSRA SCT020 OVC035CB
  FM150800 VRB03KT 6SM BR SCT007 OVC015
  FM151600 15005KT P6SM VCSH BKN025
  FM152000 17005KT P6SM -SHRA BKN035
  PROB30 1521/1603 3SM TSRA BR OVC020CB
  FM160400 VRB04KT 6SM BR VCSH BKN025


KCVG 142333Z 1500/1606 34005KT P6SM VCSH SCT060 BKN120 BKN150
  FM150100 06005KT P6SM VCSH OVC060
  FM150800 00000KT P6SM VCSH OVC100
  FM151400 04006KT P6SM VCSH SCT050 BKN100
  FM160000 08005KT P6SM SCT100


KDCA 142333Z 1500/1606 09007KT P6SM VCSH BKN050
  FM150200 09006KT P6SM BKN040
  FM150700 06006KT 6SM BR BKN035
  FM151300 06006KT P6SM OVC080
  FM152300 07007KT P6SM VCSH OVC050
  FM160300 06007KT 6SM -SHRA OVC025


KDEN 150239Z 1503/1606 08010KT P6SM FEW100 FEW140 SCT180
  FM150400 14012KT P6SM FEW100 FEW140 SCT180
  FM151000 20008KT P6SM FEW100
  FM151600 33005KT P6SM FEW100
  FM152100 05010KT P6SM FEW100
  FM160300 13012KT P6SM SCT100


KDFW 150304Z 1503/1606 15009KT P6SM SCT300
  FM151800 09007KT P6SM SKC
  FM160100 07008KT P6SM FEW200


KDTW 150305Z 1503/1606 08006KT P6SM BKN120 BKN200
  FM150600 05003KT P6SM SCT090 BKN200
  FM151400 14006KT P6SM SCT070 BKN200
  PROB30 1520/1524 4SM -TSRA SCT040CB BKN070


KEWR 150231Z 1503/1606 VRB03KT P6SM BKN130 BKN250
  FM150900 02007KT P6SM BKN250
  FM151600 07012G17KT P6SM SCT070 BKN250
  FM160200 06008KT P6SM SCT070 BKN250


KFLL 142342Z 1500/1606 13010KT P6SM FEW028 SCT250
  FM150300 VRB03KT P6SM SKC
  FM151300 14010KT P6SM SCT035
  FM160200 VRB04KT P6SM SCT250


KIAD 142333Z 1500/1606 06006KT P6SM VCSH BKN050
  FM150200 03004KT P6SM OVC080
  FM150700 11003KT 6SM BR OVC035
  FM151200 09004KT P6SM OVC090
  FM152300 07006KT P6SM VCSH OVC045
  FM160300 08005KT 6SM -SHRA OVC035


KIAH 150256Z 1503/1606 18008KT P6SM SCT250
  FM151200 22006KT P6SM FEW015 BKN120
  FM151600 20007KT P6SM FEW035 SCT120
  FM152000 17007KT P6SM FEW045 FEW120


KJFK 150231Z 1503/1606 04008KT P6SM FEW250
  FM150600 02008KT P6SM FEW250
  FM151600 08013G20KT P6SM SCT060 BKN250
  FM160200 05009KT P6SM SCT060 BKN250


KLAS 150236Z 1503/1606 33007KT P6SM FEW150
  FM150400 23008KT P6SM SKC
  FM151700 07005KT P6SM SKC
  FM152200 VRB05KT P6SM SKC


KLAX 150300Z 1503/1606 25010KT P6SM FEW120
  FM150500 23004KT P6SM SKC
  FM151300 VRB03KT P6SM SCT150
  FM151700 25008KT P6SM SKC
  FM152000 26012KT P6SM SKC
  FM160400 26008KT P6SM SKC


KLGA 150231Z 1503/1606 05009KT P6SM FEW070 BKN250
  FM150500 03010KT P6SM FEW250
  FM151700 06012G18KT P6SM SCT070 BKN250
  FM160200 06009KT P6SM SCT070 BKN250


KMCO 150253Z 1503/1606 17005KT P6SM FEW120 BKN150 BKN250
  FM151400 20006KT P6SM FEW035 SCT250
  FM151800 23008KT P6SM VCTS SCT035CB SCT060 SCT250
  TEMPO 1519/1522 3SM TSRA BKN030CB OVC045
  FM160000 21006KT P6SM VCSH SCT040 BKN100


KMDW 150300Z 1503/1606 36005KT P6SM FEW050 SCT250
  FM150800 28005KT P6SM FEW100 SCT250
  FM152000 04007KT P6SM BKN050
  TEMPO 1521/1524 3SM TSRA BKN035CB
  FM160200 01009KT P6SM SCT035


KMEM 150259Z 1503/1606 02004KT P6SM FEW250
  FM151000 01004KT P6SM FEW250
  FM151600 36007KT P6SM FEW250
  FM160100 03003KT P6SM SCT250


KMIA 142342Z 1500/1606 10010KT P6SM FEW030 SCT250
  FM150200 VRB03KT P6SM SKC
  FM151400 14010KT P6SM SCT035
  FM160200 VRB03KT P6SM SCT035


KMSP 150248Z 1503/1606 28011KT P6SM SCT050 BKN250
  FM150700 31008KT P6SM SKC
  FM152100 23006KT P6SM SCT150


KORD 150300Z 1503/1606 36005KT P6SM FEW050 SCT250
  FM150800 28005KT P6SM FEW100 SCT250
  FM152000 04007KT P6SM BKN050
  TEMPO 1521/1524 3SM TSRA BKN035CB
  FM160200 01009KT P6SM SCT035


KPDX 150252Z 1503/1524 33009KT P6SM SKC
  FM150900 34005KT P6SM SKC
  FM151700 32008KT P6SM SKC


KPHL 150258Z 1503/1606 05005KT P6SM BKN250
  FM151400 06010KT P6SM BKN250
  FM151700 09010KT P6SM SCT050 BKN200
  FM152300 12008KT P6SM BKN100
  FM160200 08005KT P6SM BKN050


KPHX 150257Z 1503/1606 24011KT P6SM FEW150 FEW250
  FM151300 09005KT P6SM FEW250
  FM151700 27010KT P6SM FEW250


KPIT 150255Z 1503/1606 10005KT P6SM BKN150
  FM151300 12006KT P6SM -RA OVC050
  FM152100 15006KT P6SM VCSH BKN060
  FM160300 16003KT P6SM BKN100


KSAN 150307Z 1503/1606 VRB05KT P6SM SCT250
  FM151900 26010KT P6SM SCT250
  FM160200 VRB05KT P6SM FEW050 FEW120


KSEA 150250Z 1503/1606 34012KT P6SM SKC
  FM150500 04006KT P6SM SKC
  FM152100 35009KT P6SM SKC


KSFO 150259Z 1503/1606 30015KT P6SM FEW200
  FM150400 29011KT P6SM FEW020 FEW150
  FM151000 29007KT P6SM SCT150
  FM151700 33007KT P6SM SCT200
  FM152100 30015KT P6SM FEW120 BKN200
  FM160400 30009KT P6SM BKN120


KSLC 150303Z 1503/1606 05004KT P6SM SKC
  FM150400 15007KT P6SM SKC
  FM151800 31008KT P6SM SKC


KSTL 150251Z 1503/1606 VRB04KT P6SM FEW040
  FM151700 34007KT P6SM BKN040


KTPA 150302Z 1503/1606 VRB03KT P6SM SCT040 SCT100 BKN250
  FM150600 00000KT P6SM FEW035 SCT250
  FM151400 22005KT P6SM SCT035 SCT250
  FM151800 25008KT P6SM VCTS SCT040CB SCT250
  FM160100 VRB03KT P6SM SCT040 SCT100 BKN250


ids not valid